EGSS/STN METAR and TAF weather

Enter ICAO airport designator
Station Type Date Time Source
EGSS METAR 2022/01/19 19:50 UTC NOAA

EGSS 191950Z AUTO 31004KT 9999 FEW038 04/02 Q1028


Station Type Date Time Source
EGSS Decoded METAR 2022/01/19 19:50 UTC NOAA

Stansted Airport, United Kingdom (EGSS) 51-53N 000-14E 0M
Jan 19, 2022 - 02:50 PM EST / 2022.01.19 1950 UTC
Wind: from the NW (310 degrees) at 5 MPH (4 KT):0
Visibility: greater than 7 mile(s):0
Sky conditions: mostly clear
Temperature: 39 F (4 C)
Dew Point: 35 F (2 C)
Relative Humidity: 86%
Pressure (altimeter): 30.36 in. Hg (1028 hPa)
ob: EGSS 191950Z AUTO 31004KT 9999 FEW038 04/02 Q1028
cycle: 20

Station Type Date Time Source
EGSS TAF 2022/01/19 18:09 UTC NOAA

TAF EGSS 191658Z 1918/2024 32012KT 9999 FEW025 PROB30
TEMPO 2003/2009 BKN008

Example: see airport list